sensor_id;sensor_type;location;lat;lon;timestamp;temperature;humidity
22114;DHT22;11223;49.968;9.062;2022-09-29T00:01:58;6.70;99.90
22114;DHT22;11223;49.968;9.062;2022-09-29T00:04:23;6.60;99.90
22114;DHT22;11223;49.968;9.062;2022-09-29T00:06:49;6.60;99.90
22114;DHT22;11223;49.968;9.062;2022-09-29T00:09:14;6.50;99.90
22114;DHT22;11223;49.968;9.062;2022-09-29T00:11:40;6.60;99.90
22114;DHT22;11223;49.968;9.062;2022-09-29T00:14:06;6.60;99.90
22114;DHT22;11223;49.968;9.062;2022-09-29T00:16:31;6.50;99.90
22114;DHT22;11223;49.968;9.062;2022-09-29T00:18:57;6.50;99.90
22114;DHT22;11223;49.968;9.062;2022-09-29T00:21:23;6.50;99.90
22114;DHT22;11223;49.968;9.062;2022-09-29T00:23:49;6.50;99.90
22114;DHT22;11223;49.968;9.062;2022-09-29T00:26:20;6.40;99.90
22114;DHT22;11223;49.968;9.062;2022-09-29T00:28:49;6.40;99.90
22114;DHT22;11223;49.968;9.062;2022-09-29T00:31:17;6.40;99.90
22114;DHT22;11223;49.968;9.062;2022-09-29T00:33:42;6.40;99.90
22114;DHT22;11223;49.968;9.062;2022-09-29T00:36:13;6.40;99.90
22114;DHT22;11223;49.968;9.062;2022-09-29T00:38:40;6.40;99.90
22114;DHT22;11223;49.968;9.062;2022-09-29T00:41:07;6.40;99.90
22114;DHT22;11223;49.968;9.062;2022-09-29T00:46:16;6.30;99.90
22114;DHT22;11223;49.968;9.062;2022-09-29T00:48:44;6.30;99.90
22114;DHT22;11223;49.968;9.062;2022-09-29T00:51:10;6.30;99.90
22114;DHT22;11223;49.968;9.062;2022-09-29T00:53:36;6.20;99.90
22114;DHT22;11223;49.968;9.062;2022-09-29T00:56:05;6.20;99.90
22114;DHT22;11223;49.968;9.062;2022-09-29T00:58:40;6.30;99.90
22114;DHT22;11223;49.968;9.062;2022-09-29T01:01:08;6.20;99.90
22114;DHT22;11223;49.968;9.062;2022-09-29T01:03:37;6.20;99.90
22114;DHT22;11223;49.968;9.062;2022-09-29T01:06:13;6.20;99.90
22114;DHT22;11223;49.968;9.062;2022-09-29T01:08:53;6.20;99.90
22114;DHT22;11223;49.968;9.062;2022-09-29T01:11:23;6.20;99.90
22114;DHT22;11223;49.968;9.062;2022-09-29T01:13:49;6.20;99.90
22114;DHT22;11223;49.968;9.062;2022-09-29T01:16:15;6.20;99.90
22114;DHT22;11223;49.968;9.062;2022-09-29T01:18:42;6.10;99.90
22114;DHT22;11223;49.968;9.062;2022-09-29T01:21:35;6.10;99.90
22114;DHT22;11223;49.968;9.062;2022-09-29T01:24:35;6.10;99.90
22114;DHT22;11223;49.968;9.062;2022-09-29T01:27:32;6.10;99.90
22114;DHT22;11223;49.968;9.062;2022-09-29T01:30:17;6.10;99.90
22114;DHT22;11223;49.968;9.062;2022-09-29T01:38:50;6.10;99.90
22114;DHT22;11223;49.968;9.062;2022-09-29T01:41:40;6.00;99.90
22114;DHT22;11223;49.968;9.062;2022-09-29T01:44:22;6.10;99.90
22114;DHT22;11223;49.968;9.062;2022-09-29T01:46:57;6.00;99.90
22114;DHT22;11223;49.968;9.062;2022-09-29T01:49:26;6.00;99.90
22114;DHT22;11223;49.968;9.062;2022-09-29T01:51:59;5.90;99.90
22114;DHT22;11223;49.968;9.062;2022-09-29T01:57:20;5.90;99.90
22114;DHT22;11223;49.968;9.062;2022-09-29T02:00:04;5.90;99.90
22114;DHT22;11223;49.968;9.062;2022-09-29T02:05:13;5.80;99.90
22114;DHT22;11223;49.968;9.062;2022-09-29T02:07:42;5.80;99.90
22114;DHT22;11223;49.968;9.062;2022-09-29T02:10:16;5.80;99.90
22114;DHT22;11223;49.968;9.062;2022-09-29T02:12:44;5.80;99.90
22114;DHT22;11223;49.968;9.062;2022-09-29T02:15:16;5.70;99.90
22114;DHT22;11223;49.968;9.062;2022-09-29T02:17:45;5.70;99.90
22114;DHT22;11223;49.968;9.062;2022-09-29T02:20:13;5.70;99.90
22114;DHT22;11223;49.968;9.062;2022-09-29T02:22:39;5.70;99.90
22114;DHT22;11223;49.968;9.062;2022-09-29T02:25:08;5.70;99.90
22114;DHT22;11223;49.968;9.062;2022-09-29T02:27:35;5.70;99.90
22114;DHT22;11223;49.968;9.062;2022-09-29T02:30:01;5.70;99.90
22114;DHT22;11223;49.968;9.062;2022-09-29T02:32:28;5.60;99.90
22114;DHT22;11223;49.968;9.062;2022-09-29T02:34:56;5.60;99.90
22114;DHT22;11223;49.968;9.062;2022-09-29T02:38:03;5.60;99.90
22114;DHT22;11223;49.968;9.062;2022-09-29T02:41:17;5.60;99.90
22114;DHT22;11223;49.968;9.062;2022-09-29T02:49:23;5.50;99.90
22114;DHT22;11223;49.968;9.062;2022-09-29T02:51:56;5.50;99.90
22114;DHT22;11223;49.968;9.062;2022-09-29T02:57:26;5.40;99.90
22114;DHT22;11223;49.968;9.062;2022-09-29T03:02:33;5.40;99.90
22114;DHT22;11223;49.968;9.062;2022-09-29T03:04:59;5.40;99.90
22114;DHT22;11223;49.968;9.062;2022-09-29T03:07:24;5.40;99.90
22114;DHT22;11223;49.968;9.062;2022-09-29T03:09:50;5.40;99.90
22114;DHT22;11223;49.968;9.062;2022-09-29T03:12:16;5.40;99.90
22114;DHT22;11223;49.968;9.062;2022-09-29T03:14:42;5.40;99.90
22114;DHT22;11223;49.968;9.062;2022-09-29T03:17:08;5.40;99.90
22114;DHT22;11223;49.968;9.062;2022-09-29T03:19:33;5.40;99.90
22114;DHT22;11223;49.968;9.062;2022-09-29T03:21:59;5.40;99.90
22114;DHT22;11223;49.968;9.062;2022-09-29T03:24:25;5.40;99.90
22114;DHT22;11223;49.968;9.062;2022-09-29T03:26:51;5.40;99.90
22114;DHT22;11223;49.968;9.062;2022-09-29T03:29:16;5.40;99.90
22114;DHT22;11223;49.968;9.062;2022-09-29T03:31:42;5.50;99.90
22114;DHT22;11223;49.968;9.062;2022-09-29T03:34:07;5.50;99.90
22114;DHT22;11223;49.968;9.062;2022-09-29T03:36:33;5.50;99.90
22114;DHT22;11223;49.968;9.062;2022-09-29T03:38:59;5.60;99.90
22114;DHT22;11223;49.968;9.062;2022-09-29T03:41:25;5.60;99.90
22114;DHT22;11223;49.968;9.062;2022-09-29T03:43:50;5.60;99.90
22114;DHT22;11223;49.968;9.062;2022-09-29T03:46:16;5.60;99.90
22114;DHT22;11223;49.968;9.062;2022-09-29T03:48:41;5.60;99.90
22114;DHT22;11223;49.968;9.062;2022-09-29T03:51:07;5.60;99.90
22114;DHT22;11223;49.968;9.062;2022-09-29T03:53:34;5.60;99.90
22114;DHT22;11223;49.968;9.062;2022-09-29T03:56:00;5.60;99.90
22114;DHT22;11223;49.968;9.062;2022-09-29T03:58:26;5.60;99.90
22114;DHT22;11223;49.968;9.062;2022-09-29T04:00:52;5.60;99.90
22114;DHT22;11223;49.968;9.062;2022-09-29T04:03:18;5.60;99.90
22114;DHT22;11223;49.968;9.062;2022-09-29T04:05:45;5.60;99.90
22114;DHT22;11223;49.968;9.062;2022-09-29T04:08:12;5.60;99.90
22114;DHT22;11223;49.968;9.062;2022-09-29T04:10:38;5.60;99.90
22114;DHT22;11223;49.968;9.062;2022-09-29T04:13:05;5.60;99.90
22114;DHT22;11223;49.968;9.062;2022-09-29T04:15:31;5.60;99.90
22114;DHT22;11223;49.968;9.062;2022-09-29T04:17:57;5.60;99.90
22114;DHT22;11223;49.968;9.062;2022-09-29T04:20:22;5.60;99.90
22114;DHT22;11223;49.968;9.062;2022-09-29T04:22:48;5.60;99.90
22114;DHT22;11223;49.968;9.062;2022-09-29T04:25:14;5.70;99.90
22114;DHT22;11223;49.968;9.062;2022-09-29T04:27:39;5.70;99.90
22114;DHT22;11223;49.968;9.062;2022-09-29T04:30:05;5.70;99.90
22114;DHT22;11223;49.968;9.062;2022-09-29T04:32:31;5.70;99.90
22114;DHT22;11223;49.968;9.062;2022-09-29T04:34:57;5.70;99.90
22114;DHT22;11223;49.968;9.062;2022-09-29T04:37:23;5.70;99.90
22114;DHT22;11223;49.968;9.062;2022-09-29T04:39:48;5.70;99.90
22114;DHT22;11223;49.968;9.062;2022-09-29T04:42:15;5.80;99.90
22114;DHT22;11223;49.968;9.062;2022-09-29T04:44:40;5.80;99.90
22114;DHT22;11223;49.968;9.062;2022-09-29T04:47:06;5.80;99.90
22114;DHT22;11223;49.968;9.062;2022-09-29T04:49:31;5.90;99.90
22114;DHT22;11223;49.968;9.062;2022-09-29T04:51:57;5.90;99.90
22114;DHT22;11223;49.968;9.062;2022-09-29T04:54:23;5.90;99.90
22114;DHT22;11223;49.968;9.062;2022-09-29T04:56:49;5.90;99.90
22114;DHT22;11223;49.968;9.062;2022-09-29T04:59:14;5.90;99.90
22114;DHT22;11223;49.968;9.062;2022-09-29T05:01:42;5.90;99.90
22114;DHT22;11223;49.968;9.062;2022-09-29T05:04:08;6.00;99.90
22114;DHT22;11223;49.968;9.062;2022-09-29T05:06:35;6.00;99.90
22114;DHT22;11223;49.968;9.062;2022-09-29T05:09:07;5.90;99.90
22114;DHT22;11223;49.968;9.062;2022-09-29T05:11:33;6.00;99.90
22114;DHT22;11223;49.968;9.062;2022-09-29T05:13:59;6.00;99.90
22114;DHT22;11223;49.968;9.062;2022-09-29T05:16:25;6.00;99.90
22114;DHT22;11223;49.968;9.062;2022-09-29T05:18:51;6.00;99.90
22114;DHT22;11223;49.968;9.062;2022-09-29T05:21:17;6.00;99.90
22114;DHT22;11223;49.968;9.062;2022-09-29T05:23:42;6.10;99.90
22114;DHT22;11223;49.968;9.062;2022-09-29T05:26:09;6.10;99.90
22114;DHT22;11223;49.968;9.062;2022-09-29T05:28:36;6.10;99.90
22114;DHT22;11223;49.968;9.062;2022-09-29T05:31:04;6.10;99.90
22114;DHT22;11223;49.968;9.062;2022-09-29T05:33:30;6.10;99.90
22114;DHT22;11223;49.968;9.062;2022-09-29T05:35:55;6.10;99.90
22114;DHT22;11223;49.968;9.062;2022-09-29T05:38:21;6.20;99.90
22114;DHT22;11223;49.968;9.062;2022-09-29T05:40:48;6.20;99.90
22114;DHT22;11223;49.968;9.062;2022-09-29T05:43:14;6.20;99.90
22114;DHT22;11223;49.968;9.062;2022-09-29T05:45:39;6.20;99.90
22114;DHT22;11223;49.968;9.062;2022-09-29T05:48:05;6.30;99.90
22114;DHT22;11223;49.968;9.062;2022-09-29T05:50:30;6.40;99.90
22114;DHT22;11223;49.968;9.062;2022-09-29T05:53:04;6.40;99.90
22114;DHT22;11223;49.968;9.062;2022-09-29T05:55:29;6.50;99.90
22114;DHT22;11223;49.968;9.062;2022-09-29T05:57:55;6.50;99.90
22114;DHT22;11223;49.968;9.062;2022-09-29T06:00:20;6.60;99.90
22114;DHT22;11223;49.968;9.062;2022-09-29T06:02:46;6.60;99.90
22114;DHT22;11223;49.968;9.062;2022-09-29T06:05:12;6.60;99.90
22114;DHT22;11223;49.968;9.062;2022-09-29T06:07:37;6.70;99.90
22114;DHT22;11223;49.968;9.062;2022-09-29T06:10:03;6.80;99.90
22114;DHT22;11223;49.968;9.062;2022-09-29T06:12:33;6.90;99.90
22114;DHT22;11223;49.968;9.062;2022-09-29T06:14:59;7.00;99.90
22114;DHT22;11223;49.968;9.062;2022-09-29T06:17:24;7.10;99.90
22114;DHT22;11223;49.968;9.062;2022-09-29T06:19:50;7.20;99.90
22114;DHT22;11223;49.968;9.062;2022-09-29T06:22:17;7.20;99.90
22114;DHT22;11223;49.968;9.062;2022-09-29T06:24:43;7.30;99.90
22114;DHT22;11223;49.968;9.062;2022-09-29T06:27:09;7.40;99.90
22114;DHT22;11223;49.968;9.062;2022-09-29T06:29:35;7.50;99.90
22114;DHT22;11223;49.968;9.062;2022-09-29T06:32:01;7.60;99.90
22114;DHT22;11223;49.968;9.062;2022-09-29T06:34:27;7.60;99.90
22114;DHT22;11223;49.968;9.062;2022-09-29T06:36:53;7.60;99.90
22114;DHT22;11223;49.968;9.062;2022-09-29T06:39:37;7.70;99.90
22114;DHT22;11223;49.968;9.062;2022-09-29T06:42:02;7.80;99.90
22114;DHT22;11223;49.968;9.062;2022-09-29T06:44:28;7.80;99.90
22114;DHT22;11223;49.968;9.062;2022-09-29T06:46:55;7.80;99.90
22114;DHT22;11223;49.968;9.062;2022-09-29T06:49:22;7.90;99.90
22114;DHT22;11223;49.968;9.062;2022-09-29T06:51:49;8.00;99.90
22114;DHT22;11223;49.968;9.062;2022-09-29T06:54:20;8.10;99.90
22114;DHT22;11223;49.968;9.062;2022-09-29T06:56:47;8.20;99.90
22114;DHT22;11223;49.968;9.062;2022-09-29T06:59:13;8.30;99.90
22114;DHT22;11223;49.968;9.062;2022-09-29T07:01:39;8.40;99.90
22114;DHT22;11223;49.968;9.062;2022-09-29T07:04:04;8.50;99.90
22114;DHT22;11223;49.968;9.062;2022-09-29T07:06:30;8.60;99.90
22114;DHT22;11223;49.968;9.062;2022-09-29T07:08:57;8.50;99.90
22114;DHT22;11223;49.968;9.062;2022-09-29T07:11:23;8.50;99.90
22114;DHT22;11223;49.968;9.062;2022-09-29T07:13:52;8.50;99.90
22114;DHT22;11223;49.968;9.062;2022-09-29T07:16:18;8.50;99.90
22114;DHT22;11223;49.968;9.062;2022-09-29T07:18:44;8.50;99.90
22114;DHT22;11223;49.968;9.062;2022-09-29T07:21:13;8.50;99.90
22114;DHT22;11223;49.968;9.062;2022-09-29T07:23:42;8.60;99.90
22114;DHT22;11223;49.968;9.062;2022-09-29T07:26:08;8.60;99.90
22114;DHT22;11223;49.968;9.062;2022-09-29T07:28:34;8.70;99.90
22114;DHT22;11223;49.968;9.062;2022-09-29T07:31:05;8.80;99.90
22114;DHT22;11223;49.968;9.062;2022-09-29T07:33:32;8.90;99.90
22114;DHT22;11223;49.968;9.062;2022-09-29T07:35:58;8.90;99.90
22114;DHT22;11223;49.968;9.062;2022-09-29T07:38:25;9.00;99.90
22114;DHT22;11223;49.968;9.062;2022-09-29T07:40:51;9.00;99.90
22114;DHT22;11223;49.968;9.062;2022-09-29T07:43:16;8.90;99.90
22114;DHT22;11223;49.968;9.062;2022-09-29T07:45:49;8.90;99.90
22114;DHT22;11223;49.968;9.062;2022-09-29T07:48:16;8.90;99.90
22114;DHT22;11223;49.968;9.062;2022-09-29T07:50:42;8.90;99.90
22114;DHT22;11223;49.968;9.062;2022-09-29T07:53:09;8.90;99.90
22114;DHT22;11223;49.968;9.062;2022-09-29T07:55:34;8.90;99.90
22114;DHT22;11223;49.968;9.062;2022-09-29T07:58:00;9.00;99.90
22114;DHT22;11223;49.968;9.062;2022-09-29T08:00:26;9.00;99.90
22114;DHT22;11223;49.968;9.062;2022-09-29T08:02:52;9.00;99.90
22114;DHT22;11223;49.968;9.062;2022-09-29T08:05:17;9.00;99.90
22114;DHT22;11223;49.968;9.062;2022-09-29T08:07:44;9.10;99.90
22114;DHT22;11223;49.968;9.062;2022-09-29T08:10:09;9.10;99.90
22114;DHT22;11223;49.968;9.062;2022-09-29T08:12:35;9.10;99.90
22114;DHT22;11223;49.968;9.062;2022-09-29T08:15:01;9.10;99.90
22114;DHT22;11223;49.968;9.062;2022-09-29T08:17:26;9.10;99.90
22114;DHT22;11223;49.968;9.062;2022-09-29T08:19:52;9.20;99.90
22114;DHT22;11223;49.968;9.062;2022-09-29T08:22:17;9.20;99.90
22114;DHT22;11223;49.968;9.062;2022-09-29T08:24:43;9.20;99.90
22114;DHT22;11223;49.968;9.062;2022-09-29T08:27:09;9.20;99.90
22114;DHT22;11223;49.968;9.062;2022-09-29T08:29:34;9.30;99.90
22114;DHT22;11223;49.968;9.062;2022-09-29T08:32:00;9.40;99.90
22114;DHT22;11223;49.968;9.062;2022-09-29T08:34:26;9.70;99.90
22114;DHT22;11223;49.968;9.062;2022-09-29T08:36:52;10.00;99.90
22114;DHT22;11223;49.968;9.062;2022-09-29T08:39:18;10.20;99.90
22114;DHT22;11223;49.968;9.062;2022-09-29T08:41:54;10.40;99.90
22114;DHT22;11223;49.968;9.062;2022-09-29T08:44:47;10.60;99.90
22114;DHT22;11223;49.968;9.062;2022-09-29T08:49:53;10.70;99.90
22114;DHT22;11223;49.968;9.062;2022-09-29T08:52:28;10.70;99.90
22114;DHT22;11223;49.968;9.062;2022-09-29T08:55:41;10.70;99.90
22114;DHT22;11223;49.968;9.062;2022-09-29T08:57:50;10.80;99.90
22114;DHT22;11223;49.968;9.062;2022-09-29T09:00:18;10.90;99.90
22114;DHT22;11223;49.968;9.062;2022-09-29T09:10:38;11.40;99.90
22114;DHT22;11223;49.968;9.062;2022-09-29T09:15:49;11.90;99.90
22114;DHT22;11223;49.968;9.062;2022-09-29T09:21:14;12.30;99.90
22114;DHT22;11223;49.968;9.062;2022-09-29T09:23:55;12.40;99.90
22114;DHT22;11223;49.968;9.062;2022-09-29T09:26:40;12.30;99.90
22114;DHT22;11223;49.968;9.062;2022-09-29T09:29:18;12.30;99.90
22114;DHT22;11223;49.968;9.062;2022-09-29T09:32:10;12.30;99.90
22114;DHT22;11223;49.968;9.062;2022-09-29T09:34:56;12.50;99.90
22114;DHT22;11223;49.968;9.062;2022-09-29T09:37:42;12.70;99.90
22114;DHT22;11223;49.968;9.062;2022-09-29T09:40:16;12.90;99.90
22114;DHT22;11223;49.968;9.062;2022-09-29T09:42:57;13.20;99.90
22114;DHT22;11223;49.968;9.062;2022-09-29T09:45:41;13.30;99.90
22114;DHT22;11223;49.968;9.062;2022-09-29T09:48:17;13.50;99.90
22114;DHT22;11223;49.968;9.062;2022-09-29T09:50:43;13.60;99.90
22114;DHT22;11223;49.968;9.062;2022-09-29T09:53:34;13.60;99.90
22114;DHT22;11223;49.968;9.062;2022-09-29T09:56:24;13.70;99.90
22114;DHT22;11223;49.968;9.062;2022-09-29T10:02:16;13.50;99.90
22114;DHT22;11223;49.968;9.062;2022-09-29T10:04:43;13.50;99.90
22114;DHT22;11223;49.968;9.062;2022-09-29T10:07:10;13.40;99.90
22114;DHT22;11223;49.968;9.062;2022-09-29T10:09:36;13.50;99.90
22114;DHT22;11223;49.968;9.062;2022-09-29T10:12:02;13.50;99.90
22114;DHT22;11223;49.968;9.062;2022-09-29T10:14:28;13.50;99.90
22114;DHT22;11223;49.968;9.062;2022-09-29T10:16:56;13.70;99.90
22114;DHT22;11223;49.968;9.062;2022-09-29T10:22:18;14.20;99.90
22114;DHT22;11223;49.968;9.062;2022-09-29T10:24:44;14.50;99.90
22114;DHT22;11223;49.968;9.062;2022-09-29T10:27:10;14.90;99.90
22114;DHT22;11223;49.968;9.062;2022-09-29T10:29:39;15.20;99.90
22114;DHT22;11223;49.968;9.062;2022-09-29T10:32:08;15.50;99.90
22114;DHT22;11223;49.968;9.062;2022-09-29T10:34:36;15.70;99.90
22114;DHT22;11223;49.968;9.062;2022-09-29T10:37:35;15.90;99.90
22114;DHT22;11223;49.968;9.062;2022-09-29T10:42:37;16.40;99.90
22114;DHT22;11223;49.968;9.062;2022-09-29T10:45:15;16.90;99.90
22114;DHT22;11223;49.968;9.062;2022-09-29T10:47:45;17.70;99.90
22114;DHT22;11223;49.968;9.062;2022-09-29T10:50:18;18.20;99.90
22114;DHT22;11223;49.968;9.062;2022-09-29T10:53:17;18.20;99.90
22114;DHT22;11223;49.968;9.062;2022-09-29T10:55:47;18.20;99.90
22114;DHT22;11223;49.968;9.062;2022-09-29T10:58:28;18.10;99.90
22114;DHT22;11223;49.968;9.062;2022-09-29T11:01:21;17.60;99.90
22114;DHT22;11223;49.968;9.062;2022-09-29T11:03:59;16.90;99.90
22114;DHT22;11223;49.968;9.062;2022-09-29T11:06:30;16.30;99.90
22114;DHT22;11223;49.968;9.062;2022-09-29T11:09:05;15.80;99.90
22114;DHT22;11223;49.968;9.062;2022-09-29T11:11:39;15.20;99.90
22114;DHT22;11223;49.968;9.062;2022-09-29T11:14:45;15.00;99.90
22114;DHT22;11223;49.968;9.062;2022-09-29T11:17:36;14.90;99.90
22114;DHT22;11223;49.968;9.062;2022-09-29T11:20:04;15.00;99.90
22114;DHT22;11223;49.968;9.062;2022-09-29T11:22:55;15.30;99.90
22114;DHT22;11223;49.968;9.062;2022-09-29T11:45:03;16.60;99.90
22114;DHT22;11223;49.968;9.062;2022-09-29T11:50:22;16.70;99.90
22114;DHT22;11223;49.968;9.062;2022-09-29T12:02:07;15.80;99.90
22114;DHT22;11223;49.968;9.062;2022-09-29T12:10:24;15.30;99.90
22114;DHT22;11223;49.968;9.062;2022-09-29T12:15:30;14.90;99.90
22114;DHT22;11223;49.968;9.062;2022-09-29T12:18:43;14.80;99.90
22114;DHT22;11223;49.968;9.062;2022-09-29T12:21:01;14.70;99.90
22114;DHT22;11223;49.968;9.062;2022-09-29T12:23:29;14.70;99.90
22114;DHT22;11223;49.968;9.062;2022-09-29T12:26:10;14.70;99.90
22114;DHT22;11223;49.968;9.062;2022-09-29T12:31:41;14.60;99.90
22114;DHT22;11223;49.968;9.062;2022-09-29T12:34:32;14.60;99.90
22114;DHT22;11223;49.968;9.062;2022-09-29T12:40:02;14.40;99.90
22114;DHT22;11223;49.968;9.062;2022-09-29T12:45:27;14.50;99.90
22114;DHT22;11223;49.968;9.062;2022-09-29T12:50:32;14.60;99.90
22114;DHT22;11223;49.968;9.062;2022-09-29T12:53:19;14.60;99.90
22114;DHT22;11223;49.968;9.062;2022-09-29T12:56:02;14.60;99.90
22114;DHT22;11223;49.968;9.062;2022-09-29T12:58:44;14.60;99.90
22114;DHT22;11223;49.968;9.062;2022-09-29T13:01:24;14.50;99.90
22114;DHT22;11223;49.968;9.062;2022-09-29T13:06:58;14.50;99.90
22114;DHT22;11223;49.968;9.062;2022-09-29T13:12:47;14.30;99.90
22114;DHT22;11223;49.968;9.062;2022-09-29T13:24:07;14.10;99.90
22114;DHT22;11223;49.968;9.062;2022-09-29T13:29:14;14.00;99.90
22114;DHT22;11223;49.968;9.062;2022-09-29T13:31:42;14.00;99.90
22114;DHT22;11223;49.968;9.062;2022-09-29T13:34:18;14.00;99.90
22114;DHT22;11223;49.968;9.062;2022-09-29T13:36:47;14.00;99.90
22114;DHT22;11223;49.968;9.062;2022-09-29T13:39:22;14.00;99.90
22114;DHT22;11223;49.968;9.062;2022-09-29T13:41:52;14.00;99.90
22114;DHT22;11223;49.968;9.062;2022-09-29T13:44:22;14.10;99.90
22114;DHT22;11223;49.968;9.062;2022-09-29T13:46:49;14.10;99.90
22114;DHT22;11223;49.968;9.062;2022-09-29T13:49:27;14.20;99.90
22114;DHT22;11223;49.968;9.062;2022-09-29T14:02:39;14.60;99.90
22114;DHT22;11223;49.968;9.062;2022-09-29T14:13:02;14.70;99.90
22114;DHT22;11223;49.968;9.062;2022-09-29T14:18:40;14.70;99.90
22114;DHT22;11223;49.968;9.062;2022-09-29T14:21:14;14.70;99.90
22114;DHT22;11223;49.968;9.062;2022-09-29T14:23:58;14.70;99.90
22114;DHT22;11223;49.968;9.062;2022-09-29T14:26:52;14.80;99.90
22114;DHT22;11223;49.968;9.062;2022-09-29T14:29:27;14.80;99.90
22114;DHT22;11223;49.968;9.062;2022-09-29T14:31:57;14.70;99.90
22114;DHT22;11223;49.968;9.062;2022-09-29T14:34:29;14.70;99.90
22114;DHT22;11223;49.968;9.062;2022-09-29T14:36:57;14.60;99.90
22114;DHT22;11223;49.968;9.062;2022-09-29T14:39:25;14.60;99.90
22114;DHT22;11223;49.968;9.062;2022-09-29T14:41:52;14.50;99.90
22114;DHT22;11223;49.968;9.062;2022-09-29T14:44:28;14.40;99.90
22114;DHT22;11223;49.968;9.062;2022-09-29T14:54:10;14.30;99.90
22114;DHT22;11223;49.968;9.062;2022-09-29T14:56:54;14.30;99.90
22114;DHT22;11223;49.968;9.062;2022-09-29T14:59:30;14.20;99.90
22114;DHT22;11223;49.968;9.062;2022-09-29T15:02:19;14.20;99.90
22114;DHT22;11223;49.968;9.062;2022-09-29T15:04:46;14.20;99.90
22114;DHT22;11223;49.968;9.062;2022-09-29T15:07:18;14.20;99.90
22114;DHT22;11223;49.968;9.062;2022-09-29T15:09:48;14.20;99.90
22114;DHT22;11223;49.968;9.062;2022-09-29T15:12:29;14.20;99.90
22114;DHT22;11223;49.968;9.062;2022-09-29T15:14:56;14.20;99.90
22114;DHT22;11223;49.968;9.062;2022-09-29T15:20:42;14.10;99.90
22114;DHT22;11223;49.968;9.062;2022-09-29T15:23:48;14.00;99.90
22114;DHT22;11223;49.968;9.062;2022-09-29T15:26:20;13.80;99.90
22114;DHT22;11223;49.968;9.062;2022-09-29T15:28:46;13.70;99.90
22114;DHT22;11223;49.968;9.062;2022-09-29T15:31:16;13.70;99.90
22114;DHT22;11223;49.968;9.062;2022-09-29T15:33:43;13.60;99.90
22114;DHT22;11223;49.968;9.062;2022-09-29T15:36:36;13.60;99.90
22114;DHT22;11223;49.968;9.062;2022-09-29T15:39:07;13.50;99.90
22114;DHT22;11223;49.968;9.062;2022-09-29T15:41:42;13.50;99.90
22114;DHT22;11223;49.968;9.062;2022-09-29T15:44:15;13.50;99.90
22114;DHT22;11223;49.968;9.062;2022-09-29T15:46:51;13.50;99.90
22114;DHT22;11223;49.968;9.062;2022-09-29T15:49:29;13.50;99.90
22114;DHT22;11223;49.968;9.062;2022-09-29T15:54:21;13.40;99.90
22114;DHT22;11223;49.968;9.062;2022-09-29T15:56:48;13.40;99.90
22114;DHT22;11223;49.968;9.062;2022-09-29T16:04:44;13.20;99.90
22114;DHT22;11223;49.968;9.062;2022-09-29T16:07:24;13.10;99.90
22114;DHT22;11223;49.968;9.062;2022-09-29T16:09:57;13.00;99.90
22114;DHT22;11223;49.968;9.062;2022-09-29T16:12:24;12.90;99.90
22114;DHT22;11223;49.968;9.062;2022-09-29T16:14:53;12.80;99.90
22114;DHT22;11223;49.968;9.062;2022-09-29T16:17:21;12.60;99.90
22114;DHT22;11223;49.968;9.062;2022-09-29T16:19:47;12.50;99.90
22114;DHT22;11223;49.968;9.062;2022-09-29T16:22:22;12.40;99.90
22114;DHT22;11223;49.968;9.062;2022-09-29T16:25:09;12.30;99.90
22114;DHT22;11223;49.968;9.062;2022-09-29T16:28:24;12.20;99.90
22114;DHT22;11223;49.968;9.062;2022-09-29T16:31:17;12.00;99.90
22114;DHT22;11223;49.968;9.062;2022-09-29T16:33:45;11.90;99.90
22114;DHT22;11223;49.968;9.062;2022-09-29T16:36:19;11.80;99.90
22114;DHT22;11223;49.968;9.062;2022-09-29T16:38:47;11.70;99.90
22114;DHT22;11223;49.968;9.062;2022-09-29T16:41:35;11.60;99.90
22114;DHT22;11223;49.968;9.062;2022-09-29T16:49:21;11.30;99.90
22114;DHT22;11223;49.968;9.062;2022-09-29T16:51:48;11.20;99.90
22114;DHT22;11223;49.968;9.062;2022-09-29T16:54:22;11.10;99.90
22114;DHT22;11223;49.968;9.062;2022-09-29T16:56:50;11.00;99.90
22114;DHT22;11223;49.968;9.062;2022-09-29T16:59:33;10.90;99.90
22114;DHT22;11223;49.968;9.062;2022-09-29T17:01:59;10.90;99.90
22114;DHT22;11223;49.968;9.062;2022-09-29T17:04:25;10.80;99.90
22114;DHT22;11223;49.968;9.062;2022-09-29T17:06:51;10.70;99.90
22114;DHT22;11223;49.968;9.062;2022-09-29T17:09:19;10.70;99.90
22114;DHT22;11223;49.968;9.062;2022-09-29T17:11:45;10.60;99.90
22114;DHT22;11223;49.968;9.062;2022-09-29T17:14:13;10.60;99.90
22114;DHT22;11223;49.968;9.062;2022-09-29T17:16:39;10.60;99.90
22114;DHT22;11223;49.968;9.062;2022-09-29T17:19:08;10.60;99.90
22114;DHT22;11223;49.968;9.062;2022-09-29T17:21:34;10.60;99.90
22114;DHT22;11223;49.968;9.062;2022-09-29T17:24:00;10.50;99.90
22114;DHT22;11223;49.968;9.062;2022-09-29T17:26:37;10.50;99.90
22114;DHT22;11223;49.968;9.062;2022-09-29T17:29:22;10.40;99.90
22114;DHT22;11223;49.968;9.062;2022-09-29T17:31:48;10.30;99.90
22114;DHT22;11223;49.968;9.062;2022-09-29T17:34:13;10.20;99.90
22114;DHT22;11223;49.968;9.062;2022-09-29T17:36:39;10.20;99.90
22114;DHT22;11223;49.968;9.062;2022-09-29T17:39:04;10.20;99.90
22114;DHT22;11223;49.968;9.062;2022-09-29T17:41:30;10.10;99.90
22114;DHT22;11223;49.968;9.062;2022-09-29T17:43:57;10.10;99.90
22114;DHT22;11223;49.968;9.062;2022-09-29T17:46:22;10.00;99.90
22114;DHT22;11223;49.968;9.062;2022-09-29T17:48:48;10.00;99.90
22114;DHT22;11223;49.968;9.062;2022-09-29T17:51:15;10.00;99.90
22114;DHT22;11223;49.968;9.062;2022-09-29T17:53:45;9.90;99.90
22114;DHT22;11223;49.968;9.062;2022-09-29T17:56:32;9.90;99.90
22114;DHT22;11223;49.968;9.062;2022-09-29T17:59:02;9.90;99.90
22114;DHT22;11223;49.968;9.062;2022-09-29T18:01:31;9.80;99.90
22114;DHT22;11223;49.968;9.062;2022-09-29T18:03:59;9.80;99.90
22114;DHT22;11223;49.968;9.062;2022-09-29T18:06:25;9.80;99.90
22114;DHT22;11223;49.968;9.062;2022-09-29T18:08:52;9.80;99.90
22114;DHT22;11223;49.968;9.062;2022-09-29T18:11:20;9.80;99.90
22114;DHT22;11223;49.968;9.062;2022-09-29T18:13:46;9.70;99.90
22114;DHT22;11223;49.968;9.062;2022-09-29T18:16:14;9.70;99.90
22114;DHT22;11223;49.968;9.062;2022-09-29T18:18:41;9.70;99.90
22114;DHT22;11223;49.968;9.062;2022-09-29T18:21:06;9.70;99.90
22114;DHT22;11223;49.968;9.062;2022-09-29T18:23:32;9.70;99.90
22114;DHT22;11223;49.968;9.062;2022-09-29T18:26:00;9.70;99.90
22114;DHT22;11223;49.968;9.062;2022-09-29T18:28:26;9.70;99.90
22114;DHT22;11223;49.968;9.062;2022-09-29T18:31:04;9.60;99.90
22114;DHT22;11223;49.968;9.062;2022-09-29T18:33:32;9.60;99.90
22114;DHT22;11223;49.968;9.062;2022-09-29T18:35:58;9.60;99.90
22114;DHT22;11223;49.968;9.062;2022-09-29T18:38:24;9.60;99.90
22114;DHT22;11223;49.968;9.062;2022-09-29T18:40:51;9.60;99.90
22114;DHT22;11223;49.968;9.062;2022-09-29T18:43:18;9.60;99.90
22114;DHT22;11223;49.968;9.062;2022-09-29T18:45:46;9.60;99.90
22114;DHT22;11223;49.968;9.062;2022-09-29T18:48:14;9.50;99.90